sensor_id;sensor_type;location;lat;lon;timestamp;P1;durP1;ratioP1;P2;durP2;ratioP2
67721;SDS011;58309;45.292;11.820;2023-08-20T00:01:44;22.27;;;18.85;;
67721;SDS011;58309;45.292;11.820;2023-08-20T00:04:10;23.63;;;19.20;;
67721;SDS011;58309;45.292;11.820;2023-08-20T00:06:36;23.52;;;18.40;;
67721;SDS011;58309;45.292;11.820;2023-08-20T00:09:02;21.27;;;19.08;;
67721;SDS011;58309;45.292;11.820;2023-08-20T00:11:28;21.13;;;18.88;;
67721;SDS011;58309;45.292;11.820;2023-08-20T00:13:54;23.58;;;19.15;;
67721;SDS011;58309;45.292;11.820;2023-08-20T00:16:19;22.05;;;19.25;;
67721;SDS011;58309;45.292;11.820;2023-08-20T00:18:45;26.63;;;20.60;;
67721;SDS011;58309;45.292;11.820;2023-08-20T00:21:11;22.42;;;19.83;;
67721;SDS011;58309;45.292;11.820;2023-08-20T00:23:37;25.27;;;20.45;;
67721;SDS011;58309;45.292;11.820;2023-08-20T00:26:03;24.90;;;21.40;;
67721;SDS011;58309;45.292;11.820;2023-08-20T00:28:28;24.02;;;21.02;;
67721;SDS011;58309;45.292;11.820;2023-08-20T00:30:54;23.02;;;20.05;;
67721;SDS011;58309;45.292;11.820;2023-08-20T00:33:19;28.63;;;21.50;;
67721;SDS011;58309;45.292;11.820;2023-08-20T00:35:45;24.17;;;21.30;;
67721;SDS011;58309;45.292;11.820;2023-08-20T00:38:10;26.10;;;21.40;;
67721;SDS011;58309;45.292;11.820;2023-08-20T00:40:36;25.52;;;21.15;;
67721;SDS011;58309;45.292;11.820;2023-08-20T00:43:01;25.15;;;21.20;;
67721;SDS011;58309;45.292;11.820;2023-08-20T00:45:27;24.25;;;21.20;;
67721;SDS011;58309;45.292;11.820;2023-08-20T00:47:52;29.02;;;22.88;;
67721;SDS011;58309;45.292;11.820;2023-08-20T00:50:18;27.50;;;20.83;;
67721;SDS011;58309;45.292;11.820;2023-08-20T00:52:44;27.80;;;23.13;;
67721;SDS011;58309;45.292;11.820;2023-08-20T00:55:11;27.77;;;22.83;;
67721;SDS011;58309;45.292;11.820;2023-08-20T00:57:38;25.02;;;21.17;;
67721;SDS011;58309;45.292;11.820;2023-08-20T01:00:04;25.60;;;22.23;;
67721;SDS011;58309;45.292;11.820;2023-08-20T01:02:34;29.83;;;23.50;;
67721;SDS011;58309;45.292;11.820;2023-08-20T01:05:01;33.20;;;23.52;;
67721;SDS011;58309;45.292;11.820;2023-08-20T01:07:29;29.88;;;24.05;;
67721;SDS011;58309;45.292;11.820;2023-08-20T01:10:08;31.98;;;24.95;;
67721;SDS011;58309;45.292;11.820;2023-08-20T01:12:48;31.27;;;25.77;;
67721;SDS011;58309;45.292;11.820;2023-08-20T01:15:16;28.00;;;23.95;;
67721;SDS011;58309;45.292;11.820;2023-08-20T01:17:42;27.60;;;24.73;;
67721;SDS011;58309;45.292;11.820;2023-08-20T01:20:14;30.73;;;25.08;;
67721;SDS011;58309;45.292;11.820;2023-08-20T01:25:48;35.38;;;27.25;;
67721;SDS011;58309;45.292;11.820;2023-08-20T01:28:36;31.52;;;25.58;;
67721;SDS011;58309;45.292;11.820;2023-08-20T01:31:01;33.45;;;26.92;;
67721;SDS011;58309;45.292;11.820;2023-08-20T01:33:28;31.30;;;26.90;;
67721;SDS011;58309;45.292;11.820;2023-08-20T01:35:55;33.60;;;27.15;;
67721;SDS011;58309;45.292;11.820;2023-08-20T01:38:21;34.08;;;26.95;;
67721;SDS011;58309;45.292;11.820;2023-08-20T01:40:47;33.22;;;27.70;;
67721;SDS011;58309;45.292;11.820;2023-08-20T01:43:13;37.08;;;28.50;;
67721;SDS011;58309;45.292;11.820;2023-08-20T01:45:38;32.35;;;27.35;;
67721;SDS011;58309;45.292;11.820;2023-08-20T01:48:04;33.88;;;27.60;;
67721;SDS011;58309;45.292;11.820;2023-08-20T01:50:30;34.03;;;27.73;;
67721;SDS011;58309;45.292;11.820;2023-08-20T01:52:56;31.88;;;27.48;;
67721;SDS011;58309;45.292;11.820;2023-08-20T01:55:21;33.92;;;27.00;;
67721;SDS011;58309;45.292;11.820;2023-08-20T01:57:47;34.92;;;26.42;;
67721;SDS011;58309;45.292;11.820;2023-08-20T02:00:12;32.60;;;26.23;;
67721;SDS011;58309;45.292;11.820;2023-08-20T02:02:38;33.15;;;26.50;;
67721;SDS011;58309;45.292;11.820;2023-08-20T02:05:03;34.70;;;25.83;;
67721;SDS011;58309;45.292;11.820;2023-08-20T02:07:29;30.60;;;26.02;;
67721;SDS011;58309;45.292;11.820;2023-08-20T02:09:55;32.22;;;26.73;;
67721;SDS011;58309;45.292;11.820;2023-08-20T02:12:20;32.15;;;25.50;;
67721;SDS011;58309;45.292;11.820;2023-08-20T02:14:46;31.60;;;25.83;;
67721;SDS011;58309;45.292;11.820;2023-08-20T02:17:11;30.10;;;24.83;;
67721;SDS011;58309;45.292;11.820;2023-08-20T02:19:37;28.92;;;25.38;;
67721;SDS011;58309;45.292;11.820;2023-08-20T02:22:03;28.45;;;25.25;;
67721;SDS011;58309;45.292;11.820;2023-08-20T02:24:28;29.38;;;25.88;;
67721;SDS011;58309;45.292;11.820;2023-08-20T02:26:54;27.92;;;24.90;;
67721;SDS011;58309;45.292;11.820;2023-08-20T02:29:19;34.20;;;26.80;;
67721;SDS011;58309;45.292;11.820;2023-08-20T02:31:45;32.25;;;25.50;;
67721;SDS011;58309;45.292;11.820;2023-08-20T02:34:10;26.23;;;23.45;;
67721;SDS011;58309;45.292;11.820;2023-08-20T02:36:36;35.38;;;26.77;;
67721;SDS011;58309;45.292;11.820;2023-08-20T02:39:01;32.65;;;27.00;;
67721;SDS011;58309;45.292;11.820;2023-08-20T02:41:28;37.47;;;25.85;;
67721;SDS011;58309;45.292;11.820;2023-08-20T02:43:54;31.55;;;24.90;;
67721;SDS011;58309;45.292;11.820;2023-08-20T02:46:19;32.17;;;25.20;;
67721;SDS011;58309;45.292;11.820;2023-08-20T02:48:45;28.48;;;24.90;;
67721;SDS011;58309;45.292;11.820;2023-08-20T02:51:10;29.40;;;24.88;;
67721;SDS011;58309;45.292;11.820;2023-08-20T02:53:36;29.98;;;25.25;;
67721;SDS011;58309;45.292;11.820;2023-08-20T02:56:01;29.02;;;25.25;;
67721;SDS011;58309;45.292;11.820;2023-08-20T02:58:28;26.75;;;23.63;;
67721;SDS011;58309;45.292;11.820;2023-08-20T03:00:54;28.85;;;25.13;;
67721;SDS011;58309;45.292;11.820;2023-08-20T03:03:19;28.00;;;24.13;;
67721;SDS011;58309;45.292;11.820;2023-08-20T03:05:44;27.65;;;24.75;;
67721;SDS011;58309;45.292;11.820;2023-08-20T03:08:10;29.38;;;24.90;;
67721;SDS011;58309;45.292;11.820;2023-08-20T03:10:35;29.48;;;23.50;;
67721;SDS011;58309;45.292;11.820;2023-08-20T03:13:01;27.58;;;23.98;;
67721;SDS011;58309;45.292;11.820;2023-08-20T03:15:28;28.27;;;25.33;;
67721;SDS011;58309;45.292;11.820;2023-08-20T03:17:54;27.38;;;23.50;;
67721;SDS011;58309;45.292;11.820;2023-08-20T03:20:19;25.60;;;22.90;;
67721;SDS011;58309;45.292;11.820;2023-08-20T03:22:45;30.33;;;24.17;;
67721;SDS011;58309;45.292;11.820;2023-08-20T03:25:10;30.23;;;26.23;;
67721;SDS011;58309;45.292;11.820;2023-08-20T03:27:36;35.58;;;25.52;;
67721;SDS011;58309;45.292;11.820;2023-08-20T03:30:02;28.58;;;24.60;;
67721;SDS011;58309;45.292;11.820;2023-08-20T03:32:28;29.30;;;24.27;;
67721;SDS011;58309;45.292;11.820;2023-08-20T03:34:53;25.23;;;22.52;;
67721;SDS011;58309;45.292;11.820;2023-08-20T03:37:21;28.10;;;22.65;;
67721;SDS011;58309;45.292;11.820;2023-08-20T03:39:47;27.40;;;23.10;;
67721;SDS011;58309;45.292;11.820;2023-08-20T03:42:12;27.70;;;22.88;;
67721;SDS011;58309;45.292;11.820;2023-08-20T03:44:37;26.52;;;23.65;;
67721;SDS011;58309;45.292;11.820;2023-08-20T03:47:03;27.67;;;22.67;;
67721;SDS011;58309;45.292;11.820;2023-08-20T03:49:28;27.42;;;23.80;;
67721;SDS011;58309;45.292;11.820;2023-08-20T03:51:54;30.35;;;25.08;;
67721;SDS011;58309;45.292;11.820;2023-08-20T03:54:19;30.50;;;23.83;;
67721;SDS011;58309;45.292;11.820;2023-08-20T03:56:45;29.08;;;25.27;;
67721;SDS011;58309;45.292;11.820;2023-08-20T03:59:10;26.67;;;23.63;;
67721;SDS011;58309;45.292;11.820;2023-08-20T04:01:37;25.35;;;22.50;;
67721;SDS011;58309;45.292;11.820;2023-08-20T04:04:03;27.98;;;23.73;;
67721;SDS011;58309;45.292;11.820;2023-08-20T04:06:29;30.55;;;24.45;;
67721;SDS011;58309;45.292;11.820;2023-08-20T04:08:54;32.63;;;26.10;;
67721;SDS011;58309;45.292;11.820;2023-08-20T04:11:20;33.00;;;27.15;;
67721;SDS011;58309;45.292;11.820;2023-08-20T04:13:45;30.33;;;26.88;;
67721;SDS011;58309;45.292;11.820;2023-08-20T04:16:11;30.20;;;25.83;;
67721;SDS011;58309;45.292;11.820;2023-08-20T04:18:36;33.50;;;25.65;;
67721;SDS011;58309;45.292;11.820;2023-08-20T04:21:02;30.42;;;26.75;;
67721;SDS011;58309;45.292;11.820;2023-08-20T04:23:27;33.90;;;28.38;;
67721;SDS011;58309;45.292;11.820;2023-08-20T04:25:53;37.20;;;28.95;;
67721;SDS011;58309;45.292;11.820;2023-08-20T04:28:18;39.85;;;29.15;;
67721;SDS011;58309;45.292;11.820;2023-08-20T04:30:43;36.80;;;29.48;;
67721;SDS011;58309;45.292;11.820;2023-08-20T04:33:09;37.83;;;28.92;;
67721;SDS011;58309;45.292;11.820;2023-08-20T04:35:34;32.08;;;27.10;;
67721;SDS011;58309;45.292;11.820;2023-08-20T04:38:00;35.00;;;28.85;;
67721;SDS011;58309;45.292;11.820;2023-08-20T04:40:26;40.92;;;29.75;;
67721;SDS011;58309;45.292;11.820;2023-08-20T04:42:52;35.55;;;28.25;;
67721;SDS011;58309;45.292;11.820;2023-08-20T04:45:17;35.13;;;28.20;;
67721;SDS011;58309;45.292;11.820;2023-08-20T04:47:44;34.80;;;28.55;;
67721;SDS011;58309;45.292;11.820;2023-08-20T04:50:10;39.88;;;28.88;;
67721;SDS011;58309;45.292;11.820;2023-08-20T04:52:36;33.53;;;28.92;;
67721;SDS011;58309;45.292;11.820;2023-08-20T04:55:01;31.92;;;27.65;;
67721;SDS011;58309;45.292;11.820;2023-08-20T04:57:27;34.40;;;27.92;;
67721;SDS011;58309;45.292;11.820;2023-08-20T04:59:53;37.63;;;28.95;;
67721;SDS011;58309;45.292;11.820;2023-08-20T05:02:18;31.98;;;27.52;;
67721;SDS011;58309;45.292;11.820;2023-08-20T05:04:44;33.13;;;26.27;;
67721;SDS011;58309;45.292;11.820;2023-08-20T05:07:10;32.20;;;25.75;;
67721;SDS011;58309;45.292;11.820;2023-08-20T05:09:35;33.70;;;26.40;;
67721;SDS011;58309;45.292;11.820;2023-08-20T05:12:01;28.98;;;24.83;;
67721;SDS011;58309;45.292;11.820;2023-08-20T05:14:27;26.73;;;23.83;;
67721;SDS011;58309;45.292;11.820;2023-08-20T05:16:53;28.70;;;22.98;;
67721;SDS011;58309;45.292;11.820;2023-08-20T05:19:21;25.98;;;23.17;;
67721;SDS011;58309;45.292;11.820;2023-08-20T05:21:47;28.08;;;23.55;;
67721;SDS011;58309;45.292;11.820;2023-08-20T05:24:12;25.33;;;21.80;;
67721;SDS011;58309;45.292;11.820;2023-08-20T05:26:38;26.08;;;21.33;;
67721;SDS011;58309;45.292;11.820;2023-08-20T05:29:03;25.70;;;20.63;;
67721;SDS011;58309;45.292;11.820;2023-08-20T05:31:29;25.13;;;20.88;;
67721;SDS011;58309;45.292;11.820;2023-08-20T05:33:54;23.83;;;20.38;;
67721;SDS011;58309;45.292;11.820;2023-08-20T05:36:20;23.75;;;20.38;;
67721;SDS011;58309;45.292;11.820;2023-08-20T05:38:45;22.63;;;20.20;;
67721;SDS011;58309;45.292;11.820;2023-08-20T05:41:10;22.77;;;20.33;;
67721;SDS011;58309;45.292;11.820;2023-08-20T05:43:36;23.17;;;19.13;;
67721;SDS011;58309;45.292;11.820;2023-08-20T05:46:02;24.27;;;20.58;;
67721;SDS011;58309;45.292;11.820;2023-08-20T05:48:28;24.20;;;20.23;;
67721;SDS011;58309;45.292;11.820;2023-08-20T05:50:53;24.25;;;19.90;;
67721;SDS011;58309;45.292;11.820;2023-08-20T05:53:19;21.58;;;18.45;;
67721;SDS011;58309;45.292;11.820;2023-08-20T05:55:46;23.75;;;19.00;;
67721;SDS011;58309;45.292;11.820;2023-08-20T05:58:11;20.70;;;18.52;;
67721;SDS011;58309;45.292;11.820;2023-08-20T06:00:37;20.00;;;17.20;;
67721;SDS011;58309;45.292;11.820;2023-08-20T06:03:02;20.95;;;17.02;;
67721;SDS011;58309;45.292;11.820;2023-08-20T06:05:28;18.55;;;16.55;;
67721;SDS011;58309;45.292;11.820;2023-08-20T06:07:53;18.38;;;16.42;;
67721;SDS011;58309;45.292;11.820;2023-08-20T06:10:19;20.35;;;16.40;;
67721;SDS011;58309;45.292;11.820;2023-08-20T06:12:44;18.10;;;16.20;;
67721;SDS011;58309;45.292;11.820;2023-08-20T06:15:09;19.80;;;15.30;;
67721;SDS011;58309;45.292;11.820;2023-08-20T06:17:35;18.23;;;15.73;;
67721;SDS011;58309;45.292;11.820;2023-08-20T06:20:00;20.90;;;15.82;;
67721;SDS011;58309;45.292;11.820;2023-08-20T06:22:26;20.42;;;16.25;;
67721;SDS011;58309;45.292;11.820;2023-08-20T06:24:51;18.63;;;15.40;;
67721;SDS011;58309;45.292;11.820;2023-08-20T06:27:17;19.05;;;15.75;;
67721;SDS011;58309;45.292;11.820;2023-08-20T06:29:42;18.02;;;16.23;;
67721;SDS011;58309;45.292;11.820;2023-08-20T06:32:08;17.45;;;15.65;;
67721;SDS011;58309;45.292;11.820;2023-08-20T06:34:34;18.23;;;15.73;;
67721;SDS011;58309;45.292;11.820;2023-08-20T06:37:00;18.90;;;16.08;;
67721;SDS011;58309;45.292;11.820;2023-08-20T06:39:25;17.95;;;16.13;;
67721;SDS011;58309;45.292;11.820;2023-08-20T06:41:50;18.10;;;16.30;;
67721;SDS011;58309;45.292;11.820;2023-08-20T06:44:16;15.95;;;14.35;;
67721;SDS011;58309;45.292;11.820;2023-08-20T06:46:42;18.23;;;14.65;;
67721;SDS011;58309;45.292;11.820;2023-08-20T06:49:07;16.75;;;14.95;;
67721;SDS011;58309;45.292;11.820;2023-08-20T06:51:33;16.73;;;15.10;;
67721;SDS011;58309;45.292;11.820;2023-08-20T06:53:58;17.27;;;15.48;;
67721;SDS011;58309;45.292;11.820;2023-08-20T06:56:24;16.85;;;15.15;;
67721;SDS011;58309;45.292;11.820;2023-08-20T06:58:49;18.98;;;14.85;;
67721;SDS011;58309;45.292;11.820;2023-08-20T07:01:15;15.20;;;13.80;;
67721;SDS011;58309;45.292;11.820;2023-08-20T07:03:42;16.55;;;14.25;;
67721;SDS011;58309;45.292;11.820;2023-08-20T07:06:09;16.55;;;13.95;;
67721;SDS011;58309;45.292;11.820;2023-08-20T07:08:35;17.45;;;13.18;;
67721;SDS011;58309;45.292;11.820;2023-08-20T07:11:02;16.98;;;13.88;;
67721;SDS011;58309;45.292;11.820;2023-08-20T07:13:27;14.68;;;13.05;;
67721;SDS011;58309;45.292;11.820;2023-08-20T07:15:53;14.50;;;13.10;;
67721;SDS011;58309;45.292;11.820;2023-08-20T07:18:19;14.50;;;13.10;;
67721;SDS011;58309;45.292;11.820;2023-08-20T07:20:44;14.70;;;13.15;;
67721;SDS011;58309;45.292;11.820;2023-08-20T07:23:10;14.75;;;13.10;;
67721;SDS011;58309;45.292;11.820;2023-08-20T07:25:37;16.30;;;13.80;;
67721;SDS011;58309;45.292;11.820;2023-08-20T07:28:06;14.90;;;12.80;;
67721;SDS011;58309;45.292;11.820;2023-08-20T07:30:33;14.63;;;13.13;;
67721;SDS011;58309;45.292;11.820;2023-08-20T07:32:59;14.60;;;13.02;;
67721;SDS011;58309;45.292;11.820;2023-08-20T07:35:25;14.88;;;13.07;;
67721;SDS011;58309;45.292;11.820;2023-08-20T07:37:51;15.48;;;13.77;;
67721;SDS011;58309;45.292;11.820;2023-08-20T07:40:16;14.30;;;12.80;;
67721;SDS011;58309;45.292;11.820;2023-08-20T07:42:42;13.43;;;12.02;;
67721;SDS011;58309;45.292;11.820;2023-08-20T07:45:08;13.32;;;11.30;;
67721;SDS011;58309;45.292;11.820;2023-08-20T07:47:35;13.45;;;12.07;;
67721;SDS011;58309;45.292;11.820;2023-08-20T07:50:01;15.07;;;11.82;;
67721;SDS011;58309;45.292;11.820;2023-08-20T07:52:26;11.95;;;10.75;;
67721;SDS011;58309;45.292;11.820;2023-08-20T07:54:52;13.38;;;12.00;;
67721;SDS011;58309;45.292;11.820;2023-08-20T07:57:17;15.80;;;11.75;;
67721;SDS011;58309;45.292;11.820;2023-08-20T07:59:43;15.45;;;11.57;;
67721;SDS011;58309;45.292;11.820;2023-08-20T08:02:08;13.48;;;11.32;;
67721;SDS011;58309;45.292;11.820;2023-08-20T08:04:34;12.02;;;10.85;;
67721;SDS011;58309;45.292;11.820;2023-08-20T08:07:00;12.60;;;11.27;;
67721;SDS011;58309;45.292;11.820;2023-08-20T08:09:27;12.35;;;11.05;;
67721;SDS011;58309;45.292;11.820;2023-08-20T08:11:54;12.13;;;10.70;;
67721;SDS011;58309;45.292;11.820;2023-08-20T08:14:20;12.60;;;11.30;;
67721;SDS011;58309;45.292;11.820;2023-08-20T08:16:46;12.80;;;11.48;;
67721;SDS011;58309;45.292;11.820;2023-08-20T08:19:11;12.55;;;11.10;;
67721;SDS011;58309;45.292;11.820;2023-08-20T08:21:37;11.43;;;10.35;;
67721;SDS011;58309;45.292;11.820;2023-08-20T08:24:03;15.98;;;11.55;;
67721;SDS011;58309;45.292;11.820;2023-08-20T08:26:30;11.18;;;10.10;;
67721;SDS011;58309;45.292;11.820;2023-08-20T08:28:56;11.93;;;10.15;;
67721;SDS011;58309;45.292;11.820;2023-08-20T08:31:23;10.27;;;8.82;;
67721;SDS011;58309;45.292;11.820;2023-08-20T08:33:48;10.20;;;9.10;;
67721;SDS011;58309;45.292;11.820;2023-08-20T08:36:14;10.07;;;8.52;;
67721;SDS011;58309;45.292;11.820;2023-08-20T08:38:41;10.05;;;9.13;;
67721;SDS011;58309;45.292;11.820;2023-08-20T08:41:12;9.60;;;8.80;;
67721;SDS011;58309;45.292;11.820;2023-08-20T08:43:39;11.38;;;8.63;;
67721;SDS011;58309;45.292;11.820;2023-08-20T08:46:06;8.90;;;8.15;;
67721;SDS011;58309;45.292;11.820;2023-08-20T08:48:33;8.55;;;7.80;;
67721;SDS011;58309;45.292;11.820;2023-08-20T08:51:00;9.52;;;8.23;;
67721;SDS011;58309;45.292;11.820;2023-08-20T08:53:26;8.45;;;7.68;;
67721;SDS011;58309;45.292;11.820;2023-08-20T08:55:52;8.50;;;7.80;;
67721;SDS011;58309;45.292;11.820;2023-08-20T08:58:18;8.38;;;7.55;;
67721;SDS011;58309;45.292;11.820;2023-08-20T09:00:43;7.82;;;7.22;;
67721;SDS011;58309;45.292;11.820;2023-08-20T09:03:10;8.45;;;7.68;;
67721;SDS011;58309;45.292;11.820;2023-08-20T09:05:48;8.77;;;7.18;;
67721;SDS011;58309;45.292;11.820;2023-08-20T09:08:48;8.25;;;7.57;;
67721;SDS011;58309;45.292;11.820;2023-08-20T09:11:06;7.82;;;7.13;;
67721;SDS011;58309;45.292;11.820;2023-08-20T09:13:36;7.82;;;7.13;;
67721;SDS011;58309;45.292;11.820;2023-08-20T09:16:07;7.97;;;7.30;;
67721;SDS011;58309;45.292;11.820;2023-08-20T09:18:46;51.95;;;18.02;;
67721;SDS011;58309;45.292;11.820;2023-08-20T09:21:12;55.38;;;18.27;;
67721;SDS011;58309;45.292;11.820;2023-08-20T09:23:39;9.80;;;8.20;;
67721;SDS011;58309;45.292;11.820;2023-08-20T09:26:05;9.98;;;7.75;;
67721;SDS011;58309;45.292;11.820;2023-08-20T09:28:42;10.57;;;8.13;;
67721;SDS011;58309;45.292;11.820;2023-08-20T09:31:09;8.07;;;7.30;;
67721;SDS011;58309;45.292;11.820;2023-08-20T09:33:35;7.63;;;7.03;;
67721;SDS011;58309;45.292;11.820;2023-08-20T09:36:02;9.05;;;6.55;;
67721;SDS011;58309;45.292;11.820;2023-08-20T09:38:29;8.52;;;6.78;;
67721;SDS011;58309;45.292;11.820;2023-08-20T09:40:54;9.80;;;7.18;;
67721;SDS011;58309;45.292;11.820;2023-08-20T09:43:24;8.45;;;7.63;;
67721;SDS011;58309;45.292;11.820;2023-08-20T09:45:54;7.53;;;6.82;;
67721;SDS011;58309;45.292;11.820;2023-08-20T09:48:21;8.15;;;7.40;;
67721;SDS011;58309;45.292;11.820;2023-08-20T09:50:48;8.75;;;7.80;;
67721;SDS011;58309;45.292;11.820;2023-08-20T09:53:36;7.40;;;6.80;;
67721;SDS011;58309;45.292;11.820;2023-08-20T09:56:15;7.45;;;6.80;;
67721;SDS011;58309;45.292;11.820;2023-08-20T09:59:04;8.73;;;6.95;;
67721;SDS011;58309;45.292;11.820;2023-08-20T10:01:30;7.20;;;6.50;;
67721;SDS011;58309;45.292;11.820;2023-08-20T10:03:56;6.72;;;6.20;;
67721;SDS011;58309;45.292;11.820;2023-08-20T10:06:22;8.07;;;6.70;;
67721;SDS011;58309;45.292;11.820;2023-08-20T10:08:50;6.90;;;6.20;;
67721;SDS011;58309;45.292;11.820;2023-08-20T10:11:16;6.82;;;6.20;;
67721;SDS011;58309;45.292;11.820;2023-08-20T10:13:42;8.57;;;7.72;;
67721;SDS011;58309;45.292;11.820;2023-08-20T10:16:08;7.00;;;6.30;;
67721;SDS011;58309;45.292;11.820;2023-08-20T10:18:34;8.35;;;6.95;;
67721;SDS011;58309;45.292;11.820;2023-08-20T10:21:00;8.30;;;6.60;;
67721;SDS011;58309;45.292;11.820;2023-08-20T10:23:26;8.77;;;7.70;;
67721;SDS011;58309;45.292;11.820;2023-08-20T10:25:52;8.05;;;7.35;;
67721;SDS011;58309;45.292;11.820;2023-08-20T10:28:22;7.05;;;6.40;;
67721;SDS011;58309;45.292;11.820;2023-08-20T10:33:38;7.10;;;6.50;;
67721;SDS011;58309;45.292;11.820;2023-08-20T10:36:19;7.80;;;6.40;;
67721;SDS011;58309;45.292;11.820;2023-08-20T10:41:27;7.13;;;6.45;;
67721;SDS011;58309;45.292;11.820;2023-08-20T10:43:56;7.15;;;6.45;;
67721;SDS011;58309;45.292;11.820;2023-08-20T10:46:24;6.60;;;6.05;;
67721;SDS011;58309;45.292;11.820;2023-08-20T10:48:57;7.10;;;6.30;;
67721;SDS011;58309;45.292;11.820;2023-08-20T10:59:07;6.90;;;6.30;;
67721;SDS011;58309;45.292;11.820;2023-08-20T11:01:34;6.95;;;6.28;;
67721;SDS011;58309;45.292;11.820;2023-08-20T11:04:00;6.78;;;6.28;;
67721;SDS011;58309;45.292;11.820;2023-08-20T11:06:32;7.65;;;6.25;;
67721;SDS011;58309;45.292;11.820;2023-08-20T11:08:59;6.53;;;5.93;;
67721;SDS011;58309;45.292;11.820;2023-08-20T11:11:25;6.07;;;5.57;;
67721;SDS011;58309;45.292;11.820;2023-08-20T11:13:50;7.38;;;5.90;;
67721;SDS011;58309;45.292;11.820;2023-08-20T11:16:16;6.57;;;5.50;;
67721;SDS011;58309;45.292;11.820;2023-08-20T11:18:44;6.15;;;5.63;;
67721;SDS011;58309;45.292;11.820;2023-08-20T11:21:09;6.22;;;5.72;;
67721;SDS011;58309;45.292;11.820;2023-08-20T11:23:35;7.30;;;6.70;;
67721;SDS011;58309;45.292;11.820;2023-08-20T11:26:01;6.50;;;6.00;;
67721;SDS011;58309;45.292;11.820;2023-08-20T11:28:27;6.78;;;6.20;;
67721;SDS011;58309;45.292;11.820;2023-08-20T11:30:53;6.65;;;6.03;;
67721;SDS011;58309;45.292;11.820;2023-08-20T11:33:21;8.15;;;6.43;;
67721;SDS011;58309;45.292;11.820;2023-08-20T11:35:47;7.75;;;6.50;;
67721;SDS011;58309;45.292;11.820;2023-08-20T11:38:13;6.70;;;6.10;;
67721;SDS011;58309;45.292;11.820;2023-08-20T11:40:38;6.80;;;6.10;;
67721;SDS011;58309;45.292;11.820;2023-08-20T11:43:04;7.13;;;6.40;;
67721;SDS011;58309;45.292;11.820;2023-08-20T11:45:30;11.55;;;6.70;;
67721;SDS011;58309;45.292;11.820;2023-08-20T11:47:57;6.72;;;6.00;;
67721;SDS011;58309;45.292;11.820;2023-08-20T11:50:23;10.15;;;6.47;;
67721;SDS011;58309;45.292;11.820;2023-08-20T11:52:49;6.53;;;6.03;;
67721;SDS011;58309;45.292;11.820;2023-08-20T11:55:21;6.77;;;6.00;;
67721;SDS011;58309;45.292;11.820;2023-08-20T11:57:52;6.68;;;6.00;;
67721;SDS011;58309;45.292;11.820;2023-08-20T12:00:24;6.68;;;6.13;;
67721;SDS011;58309;45.292;11.820;2023-08-20T12:02:55;6.47;;;5.88;;
67721;SDS011;58309;45.292;11.820;2023-08-20T12:05:30;6.97;;;6.47;;
67721;SDS011;58309;45.292;11.820;2023-08-20T12:08:00;6.38;;;5.88;;
67721;SDS011;58309;45.292;11.820;2023-08-20T12:10:27;7.20;;;6.57;;
67721;SDS011;58309;45.292;11.820;2023-08-20T12:12:54;7.47;;;6.68;;
67721;SDS011;58309;45.292;11.820;2023-08-20T12:15:20;6.45;;;5.93;;
67721;SDS011;58309;45.292;11.820;2023-08-20T12:17:59;7.18;;;6.50;;
67721;SDS011;58309;45.292;11.820;2023-08-20T12:20:27;7.03;;;6.30;;
67721;SDS011;58309;45.292;11.820;2023-08-20T12:22:54;7.35;;;6.40;;
67721;SDS011;58309;45.292;11.820;2023-08-20T12:25:19;6.90;;;6.25;;
67721;SDS011;58309;45.292;11.820;2023-08-20T12:27:45;8.32;;;7.20;;
67721;SDS011;58309;45.292;11.820;2023-08-20T12:30:11;8.02;;;6.85;;
67721;SDS011;58309;45.292;11.820;2023-08-20T12:32:36;8.73;;;6.72;;
67721;SDS011;58309;45.292;11.820;2023-08-20T12:35:02;7.18;;;6.55;;
67721;SDS011;58309;45.292;11.820;2023-08-20T12:37:28;7.22;;;6.63;;
67721;SDS011;58309;45.292;11.820;2023-08-20T12:39:53;12.45;;;7.15;;
67721;SDS011;58309;45.292;11.820;2023-08-20T12:42:19;7.63;;;6.90;;
67721;SDS011;58309;45.292;11.820;2023-08-20T12:44:44;8.65;;;7.50;;
67721;SDS011;58309;45.292;11.820;2023-08-20T12:47:10;7.57;;;6.93;;
67721;SDS011;58309;45.292;11.820;2023-08-20T12:49:35;8.02;;;7.35;;
67721;SDS011;58309;45.292;11.820;2023-08-20T12:52:00;10.15;;;7.70;;
67721;SDS011;58309;45.292;11.820;2023-08-20T12:54:26;8.10;;;7.30;;
67721;SDS011;58309;45.292;11.820;2023-08-20T12:56:51;8.05;;;7.35;;
67721;SDS011;58309;45.292;11.820;2023-08-20T12:59:17;8.20;;;7.40;;
67721;SDS011;58309;45.292;11.820;2023-08-20T13:01:42;7.78;;;7.15;;
67721;SDS011;58309;45.292;11.820;2023-08-20T13:04:08;10.38;;;7.18;;
67721;SDS011;58309;45.292;11.820;2023-08-20T13:06:34;8.10;;;7.30;;
67721;SDS011;58309;45.292;11.820;2023-08-20T13:09:02;8.73;;;7.90;;
67721;SDS011;58309;45.292;11.820;2023-08-20T13:11:28;10.65;;;7.13;;
67721;SDS011;58309;45.292;11.820;2023-08-20T13:13:56;8.25;;;7.38;;
67721;SDS011;58309;45.292;11.820;2023-08-20T13:16:22;8.30;;;7.50;;
67721;SDS011;58309;45.292;11.820;2023-08-20T13:18:48;7.97;;;7.28;;
67721;SDS011;58309;45.292;11.820;2023-08-20T13:21:14;8.48;;;7.78;;
67721;SDS011;58309;45.292;11.820;2023-08-20T13:23:39;8.50;;;7.70;;
67721;SDS011;58309;45.292;11.820;2023-08-20T13:26:06;8.15;;;7.45;;
67721;SDS011;58309;45.292;11.820;2023-08-20T13:28:31;8.60;;;7.80;;
67721;SDS011;58309;45.292;11.820;2023-08-20T13:30:57;8.50;;;7.35;;
67721;SDS011;58309;45.292;11.820;2023-08-20T13:33:22;8.75;;;7.95;;
67721;SDS011;58309;45.292;11.820;2023-08-20T13:35:48;8.68;;;7.75;;
67721;SDS011;58309;45.292;11.820;2023-08-20T13:38:13;8.43;;;7.45;;
67721;SDS011;58309;45.292;11.820;2023-08-20T13:40:39;9.00;;;7.25;;
67721;SDS011;58309;45.292;11.820;2023-08-20T13:43:04;8.15;;;7.35;;
67721;SDS011;58309;45.292;11.820;2023-08-20T13:45:31;8.25;;;7.45;;
67721;SDS011;58309;45.292;11.820;2023-08-20T13:47:57;7.72;;;7.03;;
67721;SDS011;58309;45.292;11.820;2023-08-20T13:50:22;8.60;;;7.45;;
67721;SDS011;58309;45.292;11.820;2023-08-20T13:52:48;9.73;;;7.28;;
67721;SDS011;58309;45.292;11.820;2023-08-20T13:55:25;8.25;;;7.47;;
67721;SDS011;58309;45.292;11.820;2023-08-20T13:57:51;9.77;;;7.70;;
67721;SDS011;58309;45.292;11.820;2023-08-20T14:00:16;9.52;;;7.35;;
67721;SDS011;58309;45.292;11.820;2023-08-20T14:02:41;8.48;;;7.70;;
67721;SDS011;58309;45.292;11.820;2023-08-20T14:05:08;8.48;;;7.68;;
67721;SDS011;58309;45.292;11.820;2023-08-20T14:07:33;8.18;;;7.32;;
67721;SDS011;58309;45.292;11.820;2023-08-20T14:09:59;8.05;;;7.13;;
67721;SDS011;58309;45.292;11.820;2023-08-20T14:12:25;7.97;;;7.15;;
67721;SDS011;58309;45.292;11.820;2023-08-20T14:14:50;8.65;;;7.65;;
67721;SDS011;58309;45.292;11.820;2023-08-20T14:17:16;8.57;;;7.70;;
67721;SDS011;58309;45.292;11.820;2023-08-20T14:19:41;8.65;;;7.88;;
67721;SDS011;58309;45.292;11.820;2023-08-20T14:22:08;9.68;;;7.63;;
67721;SDS011;58309;45.292;11.820;2023-08-20T14:24:33;8.75;;;7.85;;
67721;SDS011;58309;45.292;11.820;2023-08-20T14:26:59;8.75;;;7.93;;
67721;SDS011;58309;45.292;11.820;2023-08-20T14:29:24;9.40;;;7.70;;
67721;SDS011;58309;45.292;11.820;2023-08-20T14:31:50;8.30;;;7.60;;